createdAt,value
2022-09-27T00:01:08.045Z,10.90
2022-09-27T00:03:35.426Z,10.90
2022-09-27T00:06:29.376Z,10.80
2022-09-27T00:08:56.743Z,10.80
2022-09-27T00:11:34.833Z,10.80
2022-09-27T00:14:02.122Z,10.80
2022-09-27T00:16:30.999Z,10.70
2022-09-27T00:19:00.161Z,10.70
2022-09-27T00:21:28.315Z,10.60
2022-09-27T00:23:55.516Z,10.60
2022-09-27T00:26:22.726Z,10.50
2022-09-27T00:28:49.935Z,10.50
2022-09-27T00:31:22.573Z,10.50
2022-09-27T00:33:51.021Z,10.50
2022-09-27T00:36:18.438Z,10.50
2022-09-27T00:38:45.902Z,10.50
2022-09-27T00:41:21.591Z,10.50
2022-09-27T00:43:53.923Z,10.50
2022-09-27T00:46:27.484Z,10.40
2022-09-27T00:49:01.453Z,10.40
2022-09-27T00:51:28.790Z,10.30
2022-09-27T00:53:56.017Z,10.30
2022-09-27T00:56:25.125Z,10.30
2022-09-27T00:58:58.030Z,10.30
2022-09-27T01:01:25.349Z,10.20
2022-09-27T01:03:58.657Z,10.20
2022-09-27T01:06:26.007Z,10.20
2022-09-27T01:08:53.186Z,10.10
2022-09-27T01:11:54.175Z,10.10
2022-09-27T01:14:21.359Z,10.10
2022-09-27T01:16:51.211Z,10.00
2022-09-27T01:19:27.811Z,10.10
2022-09-27T01:22:09.735Z,10.00
2022-09-27T01:24:58.232Z,10.00
2022-09-27T01:27:33.131Z,10.00
2022-09-27T01:30:28.098Z,10.00
2022-09-27T01:33:05.983Z,10.00
2022-09-27T01:35:48.233Z,9.90
2022-09-27T01:38:30.238Z,9.90
2022-09-27T01:41:20.740Z,9.90
2022-09-27T01:44:00.971Z,9.90
2022-09-27T01:46:38.443Z,9.90
2022-09-27T01:49:17.743Z,9.90
2022-09-27T01:51:48.153Z,9.90
2022-09-27T01:54:17.651Z,10.00
2022-09-27T01:56:57.463Z,9.90
2022-09-27T01:59:37.931Z,9.90
2022-09-27T02:02:15.421Z,9.90
2022-09-27T02:05:03.246Z,10.00
2022-09-27T02:07:34.743Z,9.90
2022-09-27T02:10:14.554Z,9.90
2022-09-27T02:13:22.065Z,10.00
2022-09-27T02:16:14.100Z,9.90
2022-09-27T02:19:10.019Z,9.90
2022-09-27T02:22:15.559Z,9.90
2022-09-27T02:24:46.722Z,9.90
2022-09-27T02:27:47.403Z,9.90
2022-09-27T02:30:15.349Z,9.90
2022-09-27T02:32:45.308Z,9.90
2022-09-27T02:35:29.618Z,9.90
2022-09-27T02:37:56.936Z,10.00
2022-09-27T02:40:26.151Z,10.00
2022-09-27T02:42:53.409Z,10.00
2022-09-27T02:45:20.794Z,10.00
2022-09-27T02:48:13.012Z,9.90
2022-09-27T02:51:09.719Z,9.90
2022-09-27T02:54:09.875Z,9.90
2022-09-27T02:57:32.114Z,9.90
2022-09-27T03:00:20.000Z,9.90
2022-09-27T03:03:22.396Z,9.80
2022-09-27T03:06:13.670Z,9.80
2022-09-27T03:08:41.907Z,9.80
2022-09-27T03:11:09.145Z,9.80
2022-09-27T03:13:55.441Z,9.90
2022-09-27T03:16:26.878Z,9.90
2022-09-27T03:19:08.735Z,9.90
2022-09-27T03:22:08.706Z,9.90
2022-09-27T03:24:35.907Z,9.80
2022-09-27T03:27:03.683Z,9.90
2022-09-27T03:29:32.024Z,9.90
2022-09-27T03:32:05.387Z,9.90
2022-09-27T03:35:12.317Z,9.90
2022-09-27T03:37:40.965Z,9.90
2022-09-27T03:40:09.232Z,9.80
2022-09-27T03:42:36.587Z,9.90
2022-09-27T03:45:04.194Z,9.90
2022-09-27T03:47:31.400Z,9.90
2022-09-27T03:49:58.602Z,9.90
2022-09-27T03:52:25.815Z,9.90
2022-09-27T03:54:53.011Z,9.90
2022-09-27T03:57:20.206Z,9.90
2022-09-27T03:59:47.678Z,9.90
2022-09-27T04:02:33.539Z,9.90
2022-09-27T04:05:27.723Z,9.90
2022-09-27T04:08:11.951Z,9.90
2022-09-27T04:10:39.299Z,9.80
2022-09-27T04:13:07.029Z,9.80
2022-09-27T04:15:39.898Z,9.90
2022-09-27T04:18:36.044Z,9.90
2022-09-27T04:21:26.367Z,9.90
2022-09-27T04:23:53.987Z,9.90
2022-09-27T04:26:24.100Z,9.90
2022-09-27T04:29:01.423Z,9.90
2022-09-27T04:31:29.699Z,9.90
2022-09-27T04:34:16.028Z,9.90
2022-09-27T04:36:43.329Z,9.90
2022-09-27T04:39:16.747Z,9.90
2022-09-27T04:41:45.553Z,9.90
2022-09-27T04:44:13.559Z,9.90
2022-09-27T04:46:47.599Z,9.90
2022-09-27T04:49:17.557Z,9.90
2022-09-27T04:51:45.254Z,9.90
2022-09-27T04:54:12.451Z,9.90
2022-09-27T04:56:48.821Z,9.90
2022-09-27T04:59:16.297Z,10.00
2022-09-27T05:01:43.717Z,9.90
2022-09-27T05:04:37.158Z,9.90
2022-09-27T05:07:05.846Z,10.00
2022-09-27T05:09:41.596Z,10.00
2022-09-27T05:12:09.059Z,9.90
2022-09-27T05:14:42.611Z,10.00
2022-09-27T05:17:16.240Z,9.90
2022-09-27T05:20:10.558Z,10.00
2022-09-27T05:22:58.237Z,10.00
2022-09-27T05:25:25.622Z,10.00
2022-09-27T05:27:52.896Z,10.00
2022-09-27T05:30:20.553Z,10.00
2022-09-27T05:32:51.391Z,10.00
2022-09-27T05:35:45.468Z,10.10
2022-09-27T05:38:13.094Z,10.00
2022-09-27T05:40:44.383Z,10.00
2022-09-27T05:43:12.028Z,10.10
2022-09-27T05:45:39.332Z,10.10
2022-09-27T05:48:07.531Z,10.00
2022-09-27T05:50:42.987Z,10.00
2022-09-27T05:53:10.738Z,10.00
2022-09-27T05:55:38.048Z,10.00
2022-09-27T05:58:07.705Z,10.00
2022-09-27T06:00:58.330Z,10.00
2022-09-27T06:03:47.160Z,10.00
2022-09-27T06:06:40.215Z,10.00
2022-09-27T06:09:12.461Z,10.00
2022-09-27T06:11:41.864Z,9.90
2022-09-27T06:14:13.712Z,9.90
2022-09-27T06:16:55.059Z,10.00
2022-09-27T06:19:25.209Z,9.90
2022-09-27T06:21:52.454Z,10.00
2022-09-27T06:24:19.659Z,9.90
2022-09-27T06:26:47.043Z,10.00
2022-09-27T06:29:16.334Z,10.00
2022-09-27T06:31:56.990Z,10.00
2022-09-27T06:34:38.055Z,10.00
2022-09-27T06:37:05.391Z,9.90
2022-09-27T06:39:35.508Z,10.00
2022-09-27T06:42:19.375Z,10.00
2022-09-27T06:45:12.539Z,10.00
2022-09-27T06:47:59.438Z,10.10
2022-09-27T06:50:53.648Z,10.00
2022-09-27T06:53:20.872Z,10.00
2022-09-27T06:55:48.224Z,10.00
2022-09-27T06:58:33.887Z,10.00
2022-09-27T07:01:30.624Z,10.00
2022-09-27T07:04:25.259Z,10.00
2022-09-27T07:07:12.823Z,10.00
2022-09-27T07:09:48.255Z,10.00
2022-09-27T07:12:15.496Z,10.10
2022-09-27T07:14:43.336Z,10.10
2022-09-27T07:17:16.259Z,10.10
2022-09-27T07:19:45.930Z,10.10
2022-09-27T07:22:13.907Z,10.10
2022-09-27T07:24:43.815Z,10.20
2022-09-27T07:27:12.091Z,10.30
2022-09-27T07:29:39.345Z,10.30
2022-09-27T07:32:06.647Z,10.30
2022-09-27T07:34:34.204Z,10.40
2022-09-27T07:37:05.405Z,10.40
2022-09-27T07:39:36.619Z,10.40
2022-09-27T07:42:06.071Z,10.40
2022-09-27T07:44:33.339Z,10.50
2022-09-27T07:47:24.608Z,10.50
2022-09-27T07:50:14.420Z,10.60
2022-09-27T07:52:57.976Z,10.60
2022-09-27T07:55:36.586Z,10.60
2022-09-27T07:58:18.021Z,10.70
2022-09-27T08:00:45.571Z,10.80
2022-09-27T08:03:17.497Z,10.90
2022-09-27T08:05:47.364Z,10.90
2022-09-27T08:08:15.778Z,11.00
2022-09-27T08:10:46.805Z,11.10
2022-09-27T08:13:17.917Z,11.20
2022-09-27T08:15:45.227Z,11.20
2022-09-27T08:18:12.502Z,11.00
2022-09-27T08:21:09.112Z,10.60
2022-09-27T08:23:45.917Z,10.20
2022-09-27T08:26:17.988Z,9.90
2022-09-27T08:29:05.791Z,9.80
2022-09-27T08:31:38.750Z,9.60
2022-09-27T08:34:07.940Z,9.50
2022-09-27T08:36:37.359Z,9.40
2022-09-27T08:39:05.185Z,9.40
2022-09-27T08:41:47.491Z,9.30
2022-09-27T08:44:33.613Z,9.30
2022-09-27T08:47:18.564Z,9.30
2022-09-27T08:50:22.398Z,9.30
2022-09-27T08:53:13.800Z,9.30
2022-09-27T08:55:42.548Z,9.40
2022-09-27T08:58:46.683Z,9.50
2022-09-27T09:01:25.166Z,9.60
2022-09-27T09:04:04.163Z,9.70
2022-09-27T09:06:43.158Z,9.90
2022-09-27T09:09:34.556Z,10.00
2022-09-27T09:12:41.390Z,9.90
2022-09-27T09:15:26.218Z,9.90
2022-09-27T09:18:24.410Z,9.90
2022-09-27T09:21:40.168Z,9.90
2022-09-27T09:24:27.974Z,9.90
2022-09-27T09:27:14.155Z,10.00
2022-09-27T09:30:01.809Z,10.10
2022-09-27T09:32:45.623Z,10.20
2022-09-27T09:35:37.442Z,10.30
2022-09-27T09:38:08.027Z,10.40
2022-09-27T09:40:45.081Z,10.60
2022-09-27T09:43:23.984Z,10.60
2022-09-27T09:45:57.480Z,10.50
2022-09-27T09:48:45.802Z,10.50
2022-09-27T09:51:22.247Z,10.50
2022-09-27T09:53:50.706Z,10.50
2022-09-27T09:56:53.248Z,10.50
2022-09-27T09:59:35.650Z,10.40
2022-09-27T10:02:28.133Z,10.30
2022-09-27T10:05:06.813Z,10.40
2022-09-27T10:07:36.743Z,10.40
2022-09-27T10:10:05.370Z,10.50
2022-09-27T10:12:58.535Z,10.50
2022-09-27T10:15:31.073Z,10.50
2022-09-27T10:17:58.882Z,10.50
2022-09-27T10:20:35.274Z,10.50
2022-09-27T10:23:21.071Z,10.50
2022-09-27T10:26:10.263Z,10.50
2022-09-27T10:28:51.015Z,10.50
2022-09-27T10:31:23.411Z,10.50
2022-09-27T10:34:07.778Z,10.60
2022-09-27T10:36:42.831Z,10.60
2022-09-27T10:39:20.819Z,10.60
2022-09-27T10:41:48.064Z,10.60
2022-09-27T10:44:32.627Z,10.60
2022-09-27T10:47:10.190Z,10.70
2022-09-27T10:49:45.170Z,10.60
2022-09-27T10:52:42.518Z,10.60
2022-09-27T10:55:24.600Z,10.40
2022-09-27T10:57:54.665Z,10.30
2022-09-27T11:00:36.538Z,10.20
2022-09-27T11:03:16.083Z,10.20
2022-09-27T11:05:43.574Z,10.30
2022-09-27T11:08:19.899Z,10.50
2022-09-27T11:11:22.554Z,10.70
2022-09-27T11:14:10.234Z,11.00
2022-09-27T11:16:54.711Z,11.40
2022-09-27T11:19:36.767Z,11.60
2022-09-27T11:22:41.961Z,11.70
2022-09-27T11:25:54.015Z,11.80
2022-09-27T11:28:25.733Z,11.90
2022-09-27T11:31:20.026Z,11.80
2022-09-27T11:34:12.016Z,11.60
2022-09-27T11:36:42.323Z,11.40
2022-09-27T11:39:28.397Z,11.20
2022-09-27T11:42:06.618Z,11.10
2022-09-27T11:45:03.038Z,11.10
2022-09-27T11:47:57.137Z,10.90
2022-09-27T11:50:36.649Z,10.90
2022-09-27T11:53:24.611Z,10.70
2022-09-27T11:55:53.766Z,10.60
2022-09-27T11:58:42.206Z,10.70
2022-09-27T12:01:37.053Z,10.80
2022-09-27T12:04:07.374Z,10.80
2022-09-27T12:07:09.071Z,10.90
2022-09-27T12:09:39.132Z,10.80
2022-09-27T12:12:26.640Z,10.70
2022-09-27T12:15:07.173Z,10.70
2022-09-27T12:17:40.119Z,10.60
2022-09-27T12:20:11.178Z,10.40
2022-09-27T12:22:59.217Z,10.30
2022-09-27T12:25:57.079Z,10.10
2022-09-27T12:28:41.430Z,9.80
2022-09-27T12:31:29.751Z,9.50
2022-09-27T12:34:06.367Z,9.40
2022-09-27T12:36:38.784Z,9.20
2022-09-27T12:39:47.229Z,9.20
2022-09-27T12:42:30.125Z,9.30
2022-09-27T12:45:00.760Z,9.40
2022-09-27T12:47:57.503Z,9.50
2022-09-27T12:50:31.951Z,9.60
2022-09-27T12:53:08.374Z,9.60
2022-09-27T12:55:55.921Z,9.70
2022-09-27T12:58:29.274Z,9.80
2022-09-27T13:01:10.145Z,9.90
2022-09-27T13:03:47.975Z,9.90
2022-09-27T13:06:33.675Z,9.80
2022-09-27T13:09:22.975Z,9.80
2022-09-27T13:12:02.438Z,9.90
2022-09-27T13:14:35.198Z,9.90
2022-09-27T13:17:02.435Z,9.90
2022-09-27T13:19:42.646Z,9.90
2022-09-27T13:22:37.582Z,10.00
2022-09-27T13:25:51.656Z,10.10
2022-09-27T13:28:32.467Z,10.20
2022-09-27T13:31:04.693Z,10.20
2022-09-27T13:33:49.756Z,10.20
2022-09-27T13:36:24.754Z,10.10
2022-09-27T13:39:07.144Z,10.10
2022-09-27T13:41:48.851Z,10.10
2022-09-27T13:44:53.555Z,10.10
2022-09-27T13:47:27.242Z,10.10
2022-09-27T13:50:17.610Z,10.10
2022-09-27T13:53:03.319Z,10.10
2022-09-27T13:55:47.382Z,10.10
2022-09-27T13:58:42.759Z,10.10
2022-09-27T14:01:51.824Z,10.20
2022-09-27T14:04:30.713Z,10.20
2022-09-27T14:06:59.957Z,10.20
2022-09-27T14:09:33.125Z,10.20
2022-09-27T14:12:27.453Z,10.20
2022-09-27T14:14:55.415Z,10.20
2022-09-27T14:17:23.156Z,10.20
2022-09-27T14:19:51.213Z,10.30
2022-09-27T14:22:20.574Z,10.30
2022-09-27T14:24:54.434Z,10.40
2022-09-27T14:27:34.828Z,10.40
2022-09-27T14:30:22.329Z,10.40
2022-09-27T14:33:01.519Z,10.50
2022-09-27T14:36:06.883Z,10.60
2022-09-27T14:38:38.936Z,10.80
2022-09-27T14:41:18.048Z,10.90
2022-09-27T14:43:46.258Z,10.90
2022-09-27T14:46:27.293Z,10.90
2022-09-27T14:48:55.713Z,10.80
2022-09-27T14:51:32.558Z,10.70
2022-09-27T14:54:05.450Z,10.60
2022-09-27T14:56:34.466Z,10.50
2022-09-27T14:59:26.923Z,10.50
2022-09-27T15:01:54.138Z,10.50
2022-09-27T15:04:22.250Z,10.50
2022-09-27T15:06:49.707Z,10.50
2022-09-27T15:09:17.133Z,10.50
2022-09-27T15:11:45.951Z,10.50
2022-09-27T15:14:17.277Z,10.50
2022-09-27T15:16:44.979Z,10.50
2022-09-27T15:19:26.830Z,10.50
2022-09-27T15:21:54.065Z,10.50
2022-09-27T15:24:36.175Z,10.60
2022-09-27T15:27:03.515Z,10.60
2022-09-27T15:29:30.755Z,10.60
2022-09-27T15:31:59.556Z,10.60
2022-09-27T15:34:27.620Z,10.60
2022-09-27T15:36:55.088Z,10.60
2022-09-27T15:39:32.222Z,10.70
2022-09-27T15:42:09.912Z,10.60
2022-09-27T15:44:52.594Z,10.70
2022-09-27T15:47:34.741Z,10.60
2022-09-27T15:50:17.363Z,10.60
2022-09-27T15:52:47.342Z,10.70
2022-09-27T15:55:14.988Z,10.80
2022-09-27T15:57:42.913Z,10.80
2022-09-27T16:00:17.056Z,10.90
2022-09-27T16:02:44.799Z,10.90
2022-09-27T16:05:12.463Z,10.80
2022-09-27T16:07:39.760Z,10.80
2022-09-27T16:10:32.257Z,10.70
2022-09-27T16:12:59.479Z,10.60
2022-09-27T16:15:26.742Z,10.30
2022-09-27T16:17:54.766Z,10.20
2022-09-27T16:20:24.962Z,9.90
2022-09-27T16:22:53.791Z,9.70
2022-09-27T16:25:21.587Z,9.50
2022-09-27T16:27:49.139Z,9.40
2022-09-27T16:30:16.698Z,9.30
2022-09-27T16:32:47.697Z,9.20
2022-09-27T16:35:15.699Z,9.20
2022-09-27T16:37:43.148Z,9.10
2022-09-27T16:40:10.971Z,9.00
2022-09-27T16:42:38.387Z,9.00
2022-09-27T16:45:11.001Z,9.00
2022-09-27T16:47:39.176Z,8.90
2022-09-27T16:50:25.386Z,9.00
2022-09-27T16:52:53.435Z,9.00
2022-09-27T16:55:24.054Z,8.90
2022-09-27T16:57:51.330Z,9.00
2022-09-27T17:00:18.545Z,8.90
2022-09-27T17:02:49.366Z,8.90
2022-09-27T17:05:16.598Z,8.90
2022-09-27T17:07:43.776Z,9.00
2022-09-27T17:10:10.990Z,9.00
2022-09-27T17:12:38.147Z,9.00
2022-09-27T17:15:05.780Z,9.00
2022-09-27T17:17:32.927Z,9.00
2022-09-27T17:20:00.237Z,9.00
2022-09-27T17:22:27.374Z,8.90
2022-09-27T17:24:54.525Z,8.90
2022-09-27T17:27:25.797Z,9.00
2022-09-27T17:29:53.696Z,9.00
2022-09-27T17:32:24.155Z,9.00
2022-09-27T17:34:51.731Z,8.90
2022-09-27T17:37:19.050Z,9.00
2022-09-27T17:39:46.194Z,8.90
2022-09-27T17:42:13.363Z,8.90
2022-09-27T17:44:40.533Z,8.90
2022-09-27T17:47:26.258Z,8.90
2022-09-27T17:50:12.258Z,9.00
2022-09-27T17:52:39.660Z,8.90
2022-09-27T17:55:07.138Z,8.90
2022-09-27T17:57:34.371Z,8.90
2022-09-27T18:00:01.746Z,8.90
2022-09-27T18:02:29.053Z,8.90
2022-09-27T18:04:56.373Z,8.90
2022-09-27T18:07:23.761Z,8.90
2022-09-27T18:09:51.558Z,8.90
2022-09-27T18:12:18.723Z,8.90
2022-09-27T18:14:45.926Z,8.90
2022-09-27T18:17:13.201Z,8.90
2022-09-27T18:19:40.435Z,8.90
2022-09-27T18:22:07.611Z,9.00
2022-09-27T18:24:34.755Z,9.00
2022-09-27T18:27:02.186Z,8.90
2022-09-27T18:29:30.569Z,8.90
2022-09-27T18:31:57.858Z,8.80
2022-09-27T18:34:25.258Z,8.80
2022-09-27T18:36:52.486Z,8.80
2022-09-27T18:39:19.843Z,8.80
2022-09-27T18:41:49.909Z,8.80
2022-09-27T18:44:17.323Z,8.80
2022-09-27T18:46:44.914Z,8.80
2022-09-27T18:49:12.888Z,8.80
2022-09-27T18:51:43.604Z,8.70
2022-09-27T18:54:19.071Z,8.80
2022-09-27T18:56:46.925Z,8.70
2022-09-27T18:59:14.771Z,8.70
2022-09-27T19:01:45.059Z,8.70
2022-09-27T19:04:14.594Z,8.70
2022-09-27T19:06:41.858Z,8.70
2022-09-27T19:09:11.322Z,8.70
2022-09-27T19:11:38.963Z,8.60
2022-09-27T19:14:06.254Z,8.70
2022-09-27T19:16:33.589Z,8.70
2022-09-27T19:19:00.842Z,8.70
2022-09-27T19:21:28.755Z,8.70
2022-09-27T19:23:56.269Z,8.80
2022-09-27T19:26:25.507Z,8.70
2022-09-27T19:28:52.798Z,8.70
2022-09-27T19:31:21.658Z,8.70
2022-09-27T19:33:49.018Z,8.70
2022-09-27T19:36:17.223Z,8.70
2022-09-27T19:38:44.392Z,8.70
2022-09-27T19:41:13.095Z,8.70
2022-09-27T19:43:40.554Z,8.70
2022-09-27T19:46:15.285Z,8.70
2022-09-27T19:48:43.187Z,8.70
2022-09-27T19:51:14.879Z,8.70
2022-09-27T19:53:42.138Z,8.70
2022-09-27T19:56:09.783Z,8.70
2022-09-27T19:58:37.739Z,8.80
2022-09-27T20:01:08.698Z,8.80
2022-09-27T20:03:36.924Z,8.90
2022-09-27T20:06:05.343Z,8.90
2022-09-27T20:08:32.743Z,8.90
2022-09-27T20:11:06.529Z,8.90
2022-09-27T20:13:34.512Z,8.90
2022-09-27T20:16:06.401Z,8.80
2022-09-27T20:18:33.686Z,8.80
2022-09-27T20:21:02.054Z,8.80
2022-09-27T20:23:29.846Z,8.70
2022-09-27T20:26:15.860Z,8.70
2022-09-27T20:28:43.601Z,8.70
2022-09-27T20:31:12.081Z,8.70
2022-09-27T20:33:42.098Z,8.70
2022-09-27T20:36:09.523Z,8.70
2022-09-27T20:38:36.762Z,8.80
2022-09-27T20:41:04.016Z,8.80
2022-09-27T20:43:31.493Z,8.80
2022-09-27T20:46:09.861Z,8.80
2022-09-27T20:48:38.282Z,8.80
2022-09-27T20:51:05.688Z,8.80
2022-09-27T20:53:33.199Z,8.70
2022-09-27T20:56:02.719Z,8.80
2022-09-27T20:58:30.722Z,8.80
2022-09-27T21:01:05.545Z,8.80
2022-09-27T21:03:33.065Z,8.90
2022-09-27T21:06:00.331Z,8.80
2022-09-27T21:08:31.033Z,8.80
2022-09-27T21:11:07.771Z,8.90
2022-09-27T21:13:35.000Z,8.80
2022-09-27T21:16:03.760Z,8.80
2022-09-27T21:18:31.031Z,8.80
2022-09-27T21:21:03.058Z,8.90
2022-09-27T21:23:30.526Z,8.90
2022-09-27T21:26:05.654Z,8.90
2022-09-27T21:28:36.991Z,8.80
2022-09-27T21:31:10.813Z,8.90
2022-09-27T21:33:38.058Z,8.90
2022-09-27T21:36:06.095Z,8.80
2022-09-27T21:38:33.468Z,8.80
2022-09-27T21:41:03.210Z,8.90
2022-09-27T21:43:34.698Z,8.90
2022-09-27T21:46:12.026Z,8.90
2022-09-27T21:48:41.289Z,8.80
2022-09-27T21:51:12.921Z,8.90
2022-09-27T21:53:41.659Z,8.90
2022-09-27T21:56:09.306Z,8.80
2022-09-27T21:58:37.858Z,8.80
2022-09-27T22:01:13.087Z,8.80
2022-09-27T22:03:43.345Z,8.80
2022-09-27T22:06:11.651Z,8.90
2022-09-27T22:08:38.902Z,8.90
2022-09-27T22:11:06.411Z,8.90
2022-09-27T22:13:33.595Z,8.90
2022-09-27T22:16:08.081Z,8.80
2022-09-27T22:18:37.339Z,8.60
2022-09-27T22:21:05.926Z,8.50
2022-09-27T22:23:33.416Z,8.30
2022-09-27T22:26:00.680Z,8.20
2022-09-27T22:28:27.882Z,8.10
2022-09-27T22:30:55.190Z,8.10
2022-09-27T22:33:22.440Z,8.00
2022-09-27T22:35:49.592Z,8.00
2022-09-27T22:38:16.807Z,8.00
2022-09-27T22:40:44.024Z,8.00
2022-09-27T22:43:11.665Z,8.00
2022-09-27T22:45:38.829Z,8.00
2022-09-27T22:48:05.976Z,8.00
2022-09-27T22:50:33.224Z,8.00
2022-09-27T22:53:00.372Z,8.00
2022-09-27T22:55:27.578Z,7.90
2022-09-27T22:57:54.744Z,8.00
2022-09-27T23:00:22.059Z,8.00
2022-09-27T23:02:56.363Z,8.00
2022-09-27T23:05:23.623Z,8.00
2022-09-27T23:07:51.107Z,7.90
2022-09-27T23:10:18.821Z,7.90
2022-09-27T23:12:46.264Z,7.90
2022-09-27T23:15:18.278Z,7.90
2022-09-27T23:17:45.450Z,7.90
2022-09-27T23:20:14.157Z,7.90
2022-09-27T23:22:41.323Z,7.90
2022-09-27T23:25:08.987Z,7.90
2022-09-27T23:27:42.114Z,8.00
2022-09-27T23:30:10.089Z,8.00
2022-09-27T23:32:37.281Z,8.00
2022-09-27T23:35:04.709Z,8.10
2022-09-27T23:37:31.969Z,8.10
2022-09-27T23:39:59.228Z,8.20
2022-09-27T23:42:27.005Z,8.20
2022-09-27T23:44:54.917Z,8.20
2022-09-27T23:47:22.468Z,8.30
2022-09-27T23:49:49.648Z,8.30
2022-09-27T23:52:16.811Z,8.30
2022-09-27T23:54:44.027Z,8.40
2022-09-27T23:57:11.179Z,8.40
2022-09-27T23:59:41.148Z,8.40
